sensor_id;sensor_type;location;lat;lon;timestamp;pressure;altitude;pressure_sealevel;temperature;humidity
82668;BME280;72691;51.374;-0.176;2024-03-02T00:00:33;98831.72;;;5.57;57.93
82668;BME280;72691;51.374;-0.176;2024-03-02T00:02:58;98829.97;;;5.54;58.12
82668;BME280;72691;51.374;-0.176;2024-03-02T00:05:24;98833.77;;;4.94;59.93
82668;BME280;72691;51.374;-0.176;2024-03-02T00:07:53;98832.89;;;6.10;56.37
82668;BME280;72691;51.374;-0.176;2024-03-02T00:10:18;98832.37;;;5.77;57.28
82668;BME280;72691;51.374;-0.176;2024-03-02T00:12:40;98833.83;;;5.30;58.18
82668;BME280;72691;51.374;-0.176;2024-03-02T00:15:17;98842.75;;;3.98;60.26
82668;BME280;72691;51.374;-0.176;2024-03-02T00:17:31;98836.28;;;4.21;61.32
82668;BME280;72691;51.374;-0.176;2024-03-02T00:19:56;98828.12;;;5.26;58.61
82668;BME280;72691;51.374;-0.176;2024-03-02T00:22:21;98829.40;;;5.61;56.80
82668;BME280;72691;51.374;-0.176;2024-03-02T00:24:47;98835.30;;;3.99;60.98
82668;BME280;72691;51.374;-0.176;2024-03-02T00:27:14;98831.12;;;5.70;58.12
82668;BME280;72691;51.374;-0.176;2024-03-02T00:29:40;98837.36;;;4.15;61.38
82668;BME280;72691;51.374;-0.176;2024-03-02T00:32:03;98837.44;;;5.05;59.03
82668;BME280;72691;51.374;-0.176;2024-03-02T00:34:29;98840.44;;;3.87;63.15
82668;BME280;72691;51.374;-0.176;2024-03-02T00:36:57;98837.84;;;4.54;60.67
82668;BME280;72691;51.374;-0.176;2024-03-02T00:39:20;98844.67;;;3.46;63.81
82668;BME280;72691;51.374;-0.176;2024-03-02T00:41:45;98835.66;;;5.40;59.70
82668;BME280;72691;51.374;-0.176;2024-03-02T00:44:12;98840.19;;;4.26;62.24
82668;BME280;72691;51.374;-0.176;2024-03-02T00:46:37;98833.19;;;3.70;62.96
82668;BME280;72691;51.374;-0.176;2024-03-02T00:49:04;98826.48;;;5.10;60.89
82668;BME280;72691;51.374;-0.176;2024-03-02T00:51:30;98812.19;;;5.40;59.56
82668;BME280;72691;51.374;-0.176;2024-03-02T00:53:54;98817.01;;;4.97;58.91
82668;BME280;72691;51.374;-0.176;2024-03-02T00:56:18;98813.51;;;5.63;59.24
82668;BME280;72691;51.374;-0.176;2024-03-02T00:58:44;98810.74;;;3.55;63.51
82668;BME280;72691;51.374;-0.176;2024-03-02T01:01:09;98800.84;;;4.23;62.12
82668;BME280;72691;51.374;-0.176;2024-03-02T01:03:35;98800.39;;;4.75;62.18
82668;BME280;72691;51.374;-0.176;2024-03-02T01:06:00;98806.14;;;4.24;62.61
82668;BME280;72691;51.374;-0.176;2024-03-02T01:08:25;98806.40;;;4.77;62.39
82668;BME280;72691;51.374;-0.176;2024-03-02T01:10:52;98799.05;;;5.86;59.56
82668;BME280;72691;51.374;-0.176;2024-03-02T01:13:16;98802.58;;;4.24;61.49
82668;BME280;72691;51.374;-0.176;2024-03-02T01:15:42;98802.00;;;5.00;60.25
82668;BME280;72691;51.374;-0.176;2024-03-02T01:18:07;98806.74;;;4.55;60.67
82668;BME280;72691;51.374;-0.176;2024-03-02T01:20:33;98801.68;;;6.24;57.98
82668;BME280;72691;51.374;-0.176;2024-03-02T01:22:58;98806.68;;;5.20;59.89
82668;BME280;72691;51.374;-0.176;2024-03-02T01:25:24;98802.39;;;6.10;58.59
82668;BME280;72691;51.374;-0.176;2024-03-02T01:27:49;98802.01;;;6.07;57.52
82668;BME280;72691;51.374;-0.176;2024-03-02T01:30:15;98801.75;;;5.58;58.94
82668;BME280;72691;51.374;-0.176;2024-03-02T01:32:40;98797.00;;;5.86;59.03
82668;BME280;72691;51.374;-0.176;2024-03-02T01:35:06;98801.73;;;4.76;61.01
82668;BME280;72691;51.374;-0.176;2024-03-02T01:37:32;98804.88;;;4.45;63.30
82668;BME280;72691;51.374;-0.176;2024-03-02T01:39:56;98799.13;;;4.73;63.10
82668;BME280;72691;51.374;-0.176;2024-03-02T01:42:22;98801.67;;;4.67;62.71
82668;BME280;72691;51.374;-0.176;2024-03-02T01:44:47;98792.88;;;5.10;61.53
82668;BME280;72691;51.374;-0.176;2024-03-02T01:47:13;98793.65;;;4.53;63.15
82668;BME280;72691;51.374;-0.176;2024-03-02T01:49:38;98794.05;;;4.20;63.34
82668;BME280;72691;51.374;-0.176;2024-03-02T01:52:04;98793.31;;;4.66;64.00
82668;BME280;72691;51.374;-0.176;2024-03-02T01:54:29;98790.60;;;4.38;64.16
82668;BME280;72691;51.374;-0.176;2024-03-02T01:56:54;98790.28;;;5.05;63.72
82668;BME280;72691;51.374;-0.176;2024-03-02T01:59:20;98784.48;;;4.82;63.54
82668;BME280;72691;51.374;-0.176;2024-03-02T02:01:45;98786.07;;;3.43;67.83
82668;BME280;72691;51.374;-0.176;2024-03-02T02:04:11;98784.88;;;3.66;68.94
82668;BME280;72691;51.374;-0.176;2024-03-02T02:06:36;98785.46;;;4.06;68.56
82668;BME280;72691;51.374;-0.176;2024-03-02T02:09:02;98788.22;;;3.95;67.49
82668;BME280;72691;51.374;-0.176;2024-03-02T02:11:27;98789.70;;;3.74;68.38
82668;BME280;72691;51.374;-0.176;2024-03-02T02:13:53;98781.68;;;5.17;64.50
82668;BME280;72691;51.374;-0.176;2024-03-02T02:16:18;98787.56;;;4.79;65.02
82668;BME280;72691;51.374;-0.176;2024-03-02T02:18:43;98783.92;;;4.60;65.18
82668;BME280;72691;51.374;-0.176;2024-03-02T02:21:09;98785.28;;;4.51;65.12
82668;BME280;72691;51.374;-0.176;2024-03-02T02:23:35;98781.70;;;4.31;65.75
82668;BME280;72691;51.374;-0.176;2024-03-02T02:26:00;98782.59;;;4.89;63.96
82668;BME280;72691;51.374;-0.176;2024-03-02T02:28:26;98772.74;;;4.80;64.62
82668;BME280;72691;51.374;-0.176;2024-03-02T02:30:54;98766.60;;;5.68;61.45
82668;BME280;72691;51.374;-0.176;2024-03-02T02:33:17;98764.77;;;5.38;63.15
82668;BME280;72691;51.374;-0.176;2024-03-02T02:35:42;98768.24;;;4.51;65.14
82668;BME280;72691;51.374;-0.176;2024-03-02T02:38:08;98760.32;;;4.44;65.49
82668;BME280;72691;51.374;-0.176;2024-03-02T02:40:33;98766.12;;;3.75;66.89
82668;BME280;72691;51.374;-0.176;2024-03-02T02:42:59;98766.17;;;3.84;67.96
82668;BME280;72691;51.374;-0.176;2024-03-02T02:45:24;98763.36;;;3.64;68.68
82668;BME280;72691;51.374;-0.176;2024-03-02T02:47:50;98763.85;;;4.26;67.81
82668;BME280;72691;51.374;-0.176;2024-03-02T02:50:15;98764.56;;;4.68;66.50
82668;BME280;72691;51.374;-0.176;2024-03-02T02:52:41;98768.52;;;3.49;69.67
82668;BME280;72691;51.374;-0.176;2024-03-02T02:55:08;98761.67;;;4.00;69.34
82668;BME280;72691;51.374;-0.176;2024-03-02T02:57:32;98752.37;;;3.68;70.84
82668;BME280;72691;51.374;-0.176;2024-03-02T02:59:57;98748.17;;;3.98;67.41
82668;BME280;72691;51.374;-0.176;2024-03-02T03:02:23;98748.48;;;4.69;65.42
82668;BME280;72691;51.374;-0.176;2024-03-02T03:04:48;98746.10;;;5.05;65.23
82668;BME280;72691;51.374;-0.176;2024-03-02T03:07:13;98745.79;;;4.13;66.40
82668;BME280;72691;51.374;-0.176;2024-03-02T03:09:39;98740.45;;;4.22;67.53
82668;BME280;72691;51.374;-0.176;2024-03-02T03:12:05;98743.98;;;4.31;66.80
82668;BME280;72691;51.374;-0.176;2024-03-02T03:14:30;98738.60;;;3.86;68.27
82668;BME280;72691;51.374;-0.176;2024-03-02T03:16:55;98745.21;;;4.07;69.25
82668;BME280;72691;51.374;-0.176;2024-03-02T03:19:21;98733.01;;;3.88;69.28
82668;BME280;72691;51.374;-0.176;2024-03-02T03:21:46;98735.07;;;2.95;71.26
82668;BME280;72691;51.374;-0.176;2024-03-02T03:24:12;98726.56;;;4.33;68.81
82668;BME280;72691;51.374;-0.176;2024-03-02T03:26:37;98716.69;;;5.09;65.08
82668;BME280;72691;51.374;-0.176;2024-03-02T03:29:02;98714.24;;;4.82;64.59
82668;BME280;72691;51.374;-0.176;2024-03-02T03:31:27;98711.93;;;4.72;64.12
82668;BME280;72691;51.374;-0.176;2024-03-02T03:33:53;98706.08;;;5.35;63.28
82668;BME280;72691;51.374;-0.176;2024-03-02T03:36:18;98700.73;;;4.96;63.43
82668;BME280;72691;51.374;-0.176;2024-03-02T03:38:44;98696.53;;;5.41;64.03
82668;BME280;72691;51.374;-0.176;2024-03-02T03:41:09;98697.29;;;4.72;64.85
82668;BME280;72691;51.374;-0.176;2024-03-02T03:43:35;98701.57;;;4.64;64.94
82668;BME280;72691;51.374;-0.176;2024-03-02T03:46:00;98698.93;;;5.33;63.16
82668;BME280;72691;51.374;-0.176;2024-03-02T03:48:26;98705.44;;;4.81;64.55
82668;BME280;72691;51.374;-0.176;2024-03-02T03:50:51;98699.85;;;4.41;65.30
82668;BME280;72691;51.374;-0.176;2024-03-02T03:53:17;98697.90;;;4.40;66.74
82668;BME280;72691;51.374;-0.176;2024-03-02T03:55:42;98688.58;;;4.60;65.04
82668;BME280;72691;51.374;-0.176;2024-03-02T03:58:08;98682.05;;;4.52;63.77
82668;BME280;72691;51.374;-0.176;2024-03-02T04:00:33;98679.61;;;4.83;64.22
82668;BME280;72691;51.374;-0.176;2024-03-02T04:02:59;98685.81;;;5.29;62.43
82668;BME280;72691;51.374;-0.176;2024-03-02T04:05:24;98685.27;;;4.49;65.24
82668;BME280;72691;51.374;-0.176;2024-03-02T04:07:49;98681.93;;;5.06;62.54
82668;BME280;72691;51.374;-0.176;2024-03-02T04:10:15;98687.97;;;3.82;66.16
82668;BME280;72691;51.374;-0.176;2024-03-02T04:12:40;98679.34;;;5.34;62.56
82668;BME280;72691;51.374;-0.176;2024-03-02T04:15:06;98689.52;;;4.25;64.98
82668;BME280;72691;51.374;-0.176;2024-03-02T04:17:32;98681.41;;;5.30;61.94
82668;BME280;72691;51.374;-0.176;2024-03-02T04:19:57;98675.45;;;5.06;62.86
82668;BME280;72691;51.374;-0.176;2024-03-02T04:22:23;98677.47;;;5.49;62.36
82668;BME280;72691;51.374;-0.176;2024-03-02T04:24:48;98678.21;;;3.84;66.02
82668;BME280;72691;51.374;-0.176;2024-03-02T04:27:13;98664.32;;;4.70;63.93
82668;BME280;72691;51.374;-0.176;2024-03-02T04:29:39;98673.27;;;4.16;65.74
82668;BME280;72691;51.374;-0.176;2024-03-02T04:32:04;98664.36;;;4.77;65.30
82668;BME280;72691;51.374;-0.176;2024-03-02T04:34:29;98666.69;;;4.56;65.00
82668;BME280;72691;51.374;-0.176;2024-03-02T04:36:55;98665.72;;;5.07;63.67
82668;BME280;72691;51.374;-0.176;2024-03-02T04:39:20;98665.99;;;4.85;65.15
82668;BME280;72691;51.374;-0.176;2024-03-02T04:41:46;98668.25;;;4.83;65.17
82668;BME280;72691;51.374;-0.176;2024-03-02T04:44:11;98669.78;;;5.31;63.75
82668;BME280;72691;51.374;-0.176;2024-03-02T04:46:37;98674.26;;;4.39;65.76
82668;BME280;72691;51.374;-0.176;2024-03-02T04:49:02;98670.15;;;4.31;66.91
82668;BME280;72691;51.374;-0.176;2024-03-02T04:51:27;98664.51;;;4.08;68.59
82668;BME280;72691;51.374;-0.176;2024-03-02T04:53:53;98664.23;;;4.66;66.26
82668;BME280;72691;51.374;-0.176;2024-03-02T04:56:19;98666.42;;;5.06;65.23
82668;BME280;72691;51.374;-0.176;2024-03-02T04:58:45;98672.79;;;5.09;65.70
82668;BME280;72691;51.374;-0.176;2024-03-02T05:01:09;98669.64;;;5.06;65.01
82668;BME280;72691;51.374;-0.176;2024-03-02T05:03:35;98672.17;;;4.35;66.97
82668;BME280;72691;51.374;-0.176;2024-03-02T05:06:00;98678.19;;;4.18;67.26
82668;BME280;72691;51.374;-0.176;2024-03-02T05:08:27;98673.54;;;2.76;71.07
82668;BME280;72691;51.374;-0.176;2024-03-02T05:10:52;98670.72;;;4.99;66.94
82668;BME280;72691;51.374;-0.176;2024-03-02T05:13:16;98669.58;;;4.95;65.87
82668;BME280;72691;51.374;-0.176;2024-03-02T05:15:42;98659.98;;;4.31;65.98
82668;BME280;72691;51.374;-0.176;2024-03-02T05:18:07;98670.38;;;5.22;66.13
82668;BME280;72691;51.374;-0.176;2024-03-02T05:20:33;98649.38;;;5.47;64.33
82668;BME280;72691;51.374;-0.176;2024-03-02T05:22:58;98647.66;;;4.14;68.31
82668;BME280;72691;51.374;-0.176;2024-03-02T05:25:24;98647.24;;;4.42;67.58
82668;BME280;72691;51.374;-0.176;2024-03-02T05:27:49;98648.89;;;4.16;67.88
82668;BME280;72691;51.374;-0.176;2024-03-02T05:30:15;98649.82;;;3.42;69.66
82668;BME280;72691;51.374;-0.176;2024-03-02T05:32:40;98640.39;;;5.21;65.42
82668;BME280;72691;51.374;-0.176;2024-03-02T05:35:07;98633.33;;;6.51;61.11
82668;BME280;72691;51.374;-0.176;2024-03-02T05:37:31;98633.70;;;5.40;62.88
82668;BME280;72691;51.374;-0.176;2024-03-02T05:39:56;98626.10;;;6.08;61.09
82668;BME280;72691;51.374;-0.176;2024-03-02T05:42:22;98626.47;;;5.22;62.61
82668;BME280;72691;51.374;-0.176;2024-03-02T05:44:47;98625.23;;;5.05;63.28
82668;BME280;72691;51.374;-0.176;2024-03-02T05:47:14;98621.34;;;4.90;63.92
82668;BME280;72691;51.374;-0.176;2024-03-02T05:49:39;98618.20;;;5.47;63.53
82668;BME280;72691;51.374;-0.176;2024-03-02T05:52:04;98621.21;;;5.19;64.08
82668;BME280;72691;51.374;-0.176;2024-03-02T05:54:30;98618.31;;;4.82;64.38
82668;BME280;72691;51.374;-0.176;2024-03-02T05:56:55;98607.97;;;5.26;64.75
82668;BME280;72691;51.374;-0.176;2024-03-02T05:59:20;98616.50;;;4.66;65.36
82668;BME280;72691;51.374;-0.176;2024-03-02T06:01:46;98632.54;;;5.00;65.19
82668;BME280;72691;51.374;-0.176;2024-03-02T06:04:11;98645.54;;;4.56;67.04
82668;BME280;72691;51.374;-0.176;2024-03-02T06:06:37;98633.45;;;3.77;70.84
82668;BME280;72691;51.374;-0.176;2024-03-02T06:09:03;98631.36;;;3.99;70.64
82668;BME280;72691;51.374;-0.176;2024-03-02T06:11:28;98618.49;;;4.36;71.75
82668;BME280;72691;51.374;-0.176;2024-03-02T06:13:54;98612.49;;;4.37;71.05
82668;BME280;72691;51.374;-0.176;2024-03-02T06:16:19;98609.96;;;4.69;69.36
82668;BME280;72691;51.374;-0.176;2024-03-02T06:18:44;98607.15;;;4.37;71.45
82668;BME280;72691;51.374;-0.176;2024-03-02T06:21:10;98611.24;;;4.53;70.00
82668;BME280;72691;51.374;-0.176;2024-03-02T06:23:35;98626.18;;;3.73;71.77
82668;BME280;72691;51.374;-0.176;2024-03-02T06:26:02;98618.11;;;3.14;75.26
82668;BME280;72691;51.374;-0.176;2024-03-02T06:28:26;98619.55;;;3.80;75.47
82668;BME280;72691;51.374;-0.176;2024-03-02T06:30:52;98598.88;;;4.56;70.70
82668;BME280;72691;51.374;-0.176;2024-03-02T06:33:17;98601.69;;;3.51;73.26
82668;BME280;72691;51.374;-0.176;2024-03-02T06:35:42;98617.56;;;3.31;73.57
82668;BME280;72691;51.374;-0.176;2024-03-02T06:38:08;98607.45;;;3.23;73.27
82668;BME280;72691;51.374;-0.176;2024-03-02T06:40:33;98610.40;;;3.88;72.49
82668;BME280;72691;51.374;-0.176;2024-03-02T06:42:59;98613.59;;;2.53;75.15
82668;BME280;72691;51.374;-0.176;2024-03-02T06:45:24;98610.22;;;3.68;72.92
82668;BME280;72691;51.374;-0.176;2024-03-02T06:47:50;98616.92;;;3.75;73.34
82668;BME280;72691;51.374;-0.176;2024-03-02T06:50:15;98614.32;;;3.39;73.23
82668;BME280;72691;51.374;-0.176;2024-03-02T06:52:40;98615.78;;;3.58;72.93
82668;BME280;72691;51.374;-0.176;2024-03-02T06:55:07;98616.56;;;3.85;71.82
82668;BME280;72691;51.374;-0.176;2024-03-02T06:57:31;98623.60;;;3.73;71.58
82668;BME280;72691;51.374;-0.176;2024-03-02T06:59:57;98634.56;;;2.99;76.15
82668;BME280;72691;51.374;-0.176;2024-03-02T07:02:23;98612.18;;;4.27;73.16
82668;BME280;72691;51.374;-0.176;2024-03-02T07:04:48;98613.10;;;4.11;71.43
82668;BME280;72691;51.374;-0.176;2024-03-02T07:07:13;98617.54;;;4.12;71.43
82668;BME280;72691;51.374;-0.176;2024-03-02T07:09:39;98614.27;;;4.02;73.58
82668;BME280;72691;51.374;-0.176;2024-03-02T07:12:05;98610.83;;;3.46;73.52
82668;BME280;72691;51.374;-0.176;2024-03-02T07:14:30;98634.59;;;3.99;72.56
82668;BME280;72691;51.374;-0.176;2024-03-02T07:16:56;98634.89;;;3.89;75.69
82668;BME280;72691;51.374;-0.176;2024-03-02T07:19:21;98646.85;;;2.64;78.19
82668;BME280;72691;51.374;-0.176;2024-03-02T07:21:47;98642.38;;;2.76;79.16
82668;BME280;72691;51.374;-0.176;2024-03-02T07:24:12;98646.16;;;3.13;77.81
82668;BME280;72691;51.374;-0.176;2024-03-02T07:26:37;98645.40;;;2.95;76.91
82668;BME280;72691;51.374;-0.176;2024-03-02T07:29:03;98648.26;;;3.03;76.19
82668;BME280;72691;51.374;-0.176;2024-03-02T07:31:28;98650.56;;;3.61;76.03
82668;BME280;72691;51.374;-0.176;2024-03-02T07:33:54;98648.27;;;2.97;76.78
82668;BME280;72691;51.374;-0.176;2024-03-02T07:36:19;98652.30;;;3.03;76.83
82668;BME280;72691;51.374;-0.176;2024-03-02T07:38:45;98653.85;;;4.20;74.92
82668;BME280;72691;51.374;-0.176;2024-03-02T07:41:10;98639.77;;;3.42;76.20
82668;BME280;72691;51.374;-0.176;2024-03-02T07:43:36;98661.24;;;3.30;78.53
82668;BME280;72691;51.374;-0.176;2024-03-02T07:46:01;98658.26;;;3.52;78.65
82668;BME280;72691;51.374;-0.176;2024-03-02T07:48:26;98662.09;;;3.08;78.55
82668;BME280;72691;51.374;-0.176;2024-03-02T07:50:52;98669.50;;;3.12;77.63
82668;BME280;72691;51.374;-0.176;2024-03-02T07:53:17;98672.48;;;3.10;79.52
82668;BME280;72691;51.374;-0.176;2024-03-02T07:55:43;98663.63;;;3.51;77.99
82668;BME280;72691;51.374;-0.176;2024-03-02T07:58:08;98676.31;;;2.63;78.87
82668;BME280;72691;51.374;-0.176;2024-03-02T08:00:34;98654.80;;;1.76;81.36
82668;BME280;72691;51.374;-0.176;2024-03-02T08:03:00;98654.03;;;1.70;81.15
82668;BME280;72691;51.374;-0.176;2024-03-02T08:05:25;98650.15;;;2.59;81.84
82668;BME280;72691;51.374;-0.176;2024-03-02T08:07:50;98661.04;;;3.20;79.56
82668;BME280;72691;51.374;-0.176;2024-03-02T08:10:16;98680.92;;;2.91;80.54
82668;BME280;72691;51.374;-0.176;2024-03-02T08:12:41;98679.45;;;3.21;80.67
82668;BME280;72691;51.374;-0.176;2024-03-02T08:15:07;98675.54;;;2.95;82.05
82668;BME280;72691;51.374;-0.176;2024-03-02T08:17:32;98676.54;;;3.30;79.59
82668;BME280;72691;51.374;-0.176;2024-03-02T08:19:58;98674.74;;;3.06;80.17
82668;BME280;72691;51.374;-0.176;2024-03-02T08:22:23;98678.59;;;3.58;79.50
82668;BME280;72691;51.374;-0.176;2024-03-02T08:24:48;98693.07;;;2.18;81.77
82668;BME280;72691;51.374;-0.176;2024-03-02T08:27:14;98685.25;;;3.03;80.38
82668;BME280;72691;51.374;-0.176;2024-03-02T08:29:39;98695.29;;;2.97;80.42
82668;BME280;72691;51.374;-0.176;2024-03-02T08:32:06;98694.32;;;2.56;81.06
82668;BME280;72691;51.374;-0.176;2024-03-02T08:34:30;98689.28;;;3.16;79.40
82668;BME280;72691;51.374;-0.176;2024-03-02T08:36:55;98698.70;;;2.96;80.61
82668;BME280;72691;51.374;-0.176;2024-03-02T08:39:21;98691.71;;;3.13;78.96
82668;BME280;72691;51.374;-0.176;2024-03-02T08:41:47;98684.01;;;3.12;79.02
82668;BME280;72691;51.374;-0.176;2024-03-02T08:44:12;98690.13;;;3.60;77.86
82668;BME280;72691;51.374;-0.176;2024-03-02T08:46:37;98689.91;;;3.62;77.65
82668;BME280;72691;51.374;-0.176;2024-03-02T08:49:02;98701.00;;;3.87;77.21
82668;BME280;72691;51.374;-0.176;2024-03-02T08:51:28;98700.01;;;3.65;78.60
82668;BME280;72691;51.374;-0.176;2024-03-02T08:53:53;98700.87;;;4.49;76.69
82668;BME280;72691;51.374;-0.176;2024-03-02T08:56:19;98705.91;;;3.91;77.31
82668;BME280;72691;51.374;-0.176;2024-03-02T08:58:44;98720.75;;;3.72;77.34
82668;BME280;72691;51.374;-0.176;2024-03-02T09:01:09;98714.08;;;3.17;78.77
82668;BME280;72691;51.374;-0.176;2024-03-02T09:03:35;98719.15;;;3.10;78.17
82668;BME280;72691;51.374;-0.176;2024-03-02T09:06:00;98705.91;;;2.90;78.60
82668;BME280;72691;51.374;-0.176;2024-03-02T09:08:26;98708.91;;;3.75;79.04
82668;BME280;72691;51.374;-0.176;2024-03-02T09:10:52;98708.85;;;4.18;76.31
82668;BME280;72691;51.374;-0.176;2024-03-02T09:13:17;98718.97;;;4.00;76.93
82668;BME280;72691;51.374;-0.176;2024-03-02T09:15:42;98738.50;;;3.93;76.79
82668;BME280;72691;51.374;-0.176;2024-03-02T09:18:08;98743.06;;;3.11;80.25
82668;BME280;72691;51.374;-0.176;2024-03-02T09:20:33;98747.83;;;2.50;81.59
82668;BME280;72691;51.374;-0.176;2024-03-02T09:22:58;98742.69;;;2.79;81.10
82668;BME280;72691;51.374;-0.176;2024-03-02T09:25:24;98739.49;;;2.56;80.54
82668;BME280;72691;51.374;-0.176;2024-03-02T09:27:49;98737.81;;;2.34;81.29
82668;BME280;72691;51.374;-0.176;2024-03-02T09:30:15;98744.29;;;2.92;79.93
82668;BME280;72691;51.374;-0.176;2024-03-02T09:32:41;98736.35;;;3.26;79.97
82668;BME280;72691;51.374;-0.176;2024-03-02T09:35:07;98737.59;;;2.66;80.04
82668;BME280;72691;51.374;-0.176;2024-03-02T09:37:31;98730.76;;;3.19;79.78
82668;BME280;72691;51.374;-0.176;2024-03-02T09:39:57;98732.18;;;3.37;77.33
82668;BME280;72691;51.374;-0.176;2024-03-02T09:42:23;98753.05;;;2.70;78.98
82668;BME280;72691;51.374;-0.176;2024-03-02T09:44:48;98750.47;;;2.06;83.84
82668;BME280;72691;51.374;-0.176;2024-03-02T09:47:14;98752.57;;;2.60;81.25
82668;BME280;72691;51.374;-0.176;2024-03-02T09:49:40;98763.14;;;1.80;81.87
82668;BME280;72691;51.374;-0.176;2024-03-02T09:52:05;98758.91;;;1.78;82.65
82668;BME280;72691;51.374;-0.176;2024-03-02T09:54:30;98759.40;;;2.27;82.48
82668;BME280;72691;51.374;-0.176;2024-03-02T09:56:55;98755.99;;;2.11;83.87
82668;BME280;72691;51.374;-0.176;2024-03-02T09:59:21;98754.35;;;2.00;83.61
82668;BME280;72691;51.374;-0.176;2024-03-02T10:01:56;98741.18;;;2.31;82.63
82668;BME280;72691;51.374;-0.176;2024-03-02T10:04:12;98749.30;;;3.06;81.06
82668;BME280;72691;51.374;-0.176;2024-03-02T10:06:37;98767.27;;;2.51;83.59
82668;BME280;72691;51.374;-0.176;2024-03-02T10:09:03;98763.05;;;2.57;81.63
82668;BME280;72691;51.374;-0.176;2024-03-02T10:11:29;98770.14;;;2.08;84.25
82668;BME280;72691;51.374;-0.176;2024-03-02T10:14:04;98773.39;;;2.37;83.80
82668;BME280;72691;51.374;-0.176;2024-03-02T10:16:19;98781.28;;;2.05;81.98
82668;BME280;72691;51.374;-0.176;2024-03-02T10:18:45;98783.71;;;2.99;81.40
82668;BME280;72691;51.374;-0.176;2024-03-02T10:21:13;98773.13;;;2.82;80.61
82668;BME280;72691;51.374;-0.176;2024-03-02T10:23:36;98780.06;;;2.98;79.61
82668;BME280;72691;51.374;-0.176;2024-03-02T10:26:01;98786.00;;;2.92;79.72
82668;BME280;72691;51.374;-0.176;2024-03-02T10:28:26;98781.54;;;3.58;79.28
82668;BME280;72691;51.374;-0.176;2024-03-02T10:30:52;98799.58;;;3.15;78.98
82668;BME280;72691;51.374;-0.176;2024-03-02T10:33:17;98794.13;;;2.43;81.32
82668;BME280;72691;51.374;-0.176;2024-03-02T10:35:44;98799.43;;;2.56;81.29
82668;BME280;72691;51.374;-0.176;2024-03-02T10:38:11;98813.03;;;1.83;82.18
82668;BME280;72691;51.374;-0.176;2024-03-02T10:40:34;98811.33;;;2.35;81.44
82668;BME280;72691;51.374;-0.176;2024-03-02T10:43:01;98810.10;;;3.17;78.75
82668;BME280;72691;51.374;-0.176;2024-03-02T10:45:25;98816.50;;;3.36;78.77
82668;BME280;72691;51.374;-0.176;2024-03-02T10:47:51;98812.02;;;2.89;78.97
82668;BME280;72691;51.374;-0.176;2024-03-02T10:50:17;98823.11;;;2.49;80.31
82668;BME280;72691;51.374;-0.176;2024-03-02T10:52:41;98822.93;;;2.58;80.84
82668;BME280;72691;51.374;-0.176;2024-03-02T10:55:08;98828.46;;;2.65;79.23
82668;BME280;72691;51.374;-0.176;2024-03-02T10:57:40;98830.12;;;2.96;77.21
82668;BME280;72691;51.374;-0.176;2024-03-02T11:00:03;98831.73;;;3.16;77.96
82668;BME280;72691;51.374;-0.176;2024-03-02T11:02:24;98825.62;;;2.82;78.66
82668;BME280;72691;51.374;-0.176;2024-03-02T11:04:49;98826.31;;;3.03;77.46
82668;BME280;72691;51.374;-0.176;2024-03-02T11:07:14;98833.35;;;2.45;79.25
82668;BME280;72691;51.374;-0.176;2024-03-02T11:09:41;98844.51;;;2.33;81.20
82668;BME280;72691;51.374;-0.176;2024-03-02T11:12:11;98839.00;;;2.27;80.23
82668;BME280;72691;51.374;-0.176;2024-03-02T11:14:31;98844.89;;;3.31;79.59
82668;BME280;72691;51.374;-0.176;2024-03-02T11:16:56;98844.54;;;2.29;78.30
82668;BME280;72691;51.374;-0.176;2024-03-02T11:19:22;98841.65;;;2.38;78.80
82668;BME280;72691;51.374;-0.176;2024-03-02T11:21:47;98843.62;;;3.49;75.78
82668;BME280;72691;51.374;-0.176;2024-03-02T11:24:29;98849.27;;;4.12;75.44
82668;BME280;72691;51.374;-0.176;2024-03-02T11:26:39;98849.23;;;3.02;76.84
82668;BME280;72691;51.374;-0.176;2024-03-02T11:29:03;98846.27;;;2.56;77.64
82668;BME280;72691;51.374;-0.176;2024-03-02T11:33:54;98841.29;;;3.63;76.40
82668;BME280;72691;51.374;-0.176;2024-03-02T11:36:20;98843.83;;;3.13;77.68
82668;BME280;72691;51.374;-0.176;2024-03-02T11:38:45;98845.84;;;4.42;76.04
82668;BME280;72691;51.374;-0.176;2024-03-02T11:41:10;98842.20;;;4.65;74.49
82668;BME280;72691;51.374;-0.176;2024-03-02T11:43:38;98842.88;;;4.01;72.43
82668;BME280;72691;51.374;-0.176;2024-03-02T11:46:04;98842.35;;;4.58;73.93
82668;BME280;72691;51.374;-0.176;2024-03-02T11:48:27;98838.85;;;6.63;72.64
82668;BME280;72691;51.374;-0.176;2024-03-02T11:50:53;98850.59;;;5.95;70.09
82668;BME280;72691;51.374;-0.176;2024-03-02T11:53:19;98847.30;;;5.92;71.67
82668;BME280;72691;51.374;-0.176;2024-03-02T11:55:45;98845.84;;;4.71;73.53
82668;BME280;72691;51.374;-0.176;2024-03-02T11:58:09;98850.35;;;4.38;74.34
82668;BME280;72691;51.374;-0.176;2024-03-02T12:00:34;98847.53;;;4.81;74.91
82668;BME280;72691;51.374;-0.176;2024-03-02T12:03:00;98848.08;;;5.02;72.88
82668;BME280;72691;51.374;-0.176;2024-03-02T12:05:26;98847.10;;;5.69;72.73
82668;BME280;72691;51.374;-0.176;2024-03-02T12:07:56;98843.30;;;5.72;71.61
82668;BME280;72691;51.374;-0.176;2024-03-02T12:10:16;98841.93;;;6.53;70.23
82668;BME280;72691;51.374;-0.176;2024-03-02T12:12:41;98844.98;;;5.18;70.95
82668;BME280;72691;51.374;-0.176;2024-03-02T12:15:07;98840.25;;;5.49;73.51
82668;BME280;72691;51.374;-0.176;2024-03-02T12:17:32;98835.26;;;7.11;70.56
82668;BME280;72691;51.374;-0.176;2024-03-02T12:19:58;98836.06;;;6.70;67.18
82668;BME280;72691;51.374;-0.176;2024-03-02T12:22:23;98829.36;;;6.40;67.76
82668;BME280;72691;51.374;-0.176;2024-03-02T12:24:49;98824.69;;;6.99;65.45
82668;BME280;72691;51.374;-0.176;2024-03-02T12:27:15;98829.77;;;7.53;65.31
82668;BME280;72691;51.374;-0.176;2024-03-02T12:29:39;98829.14;;;8.64;65.79
82668;BME280;72691;51.374;-0.176;2024-03-02T12:32:06;98830.51;;;7.61;65.46
82668;BME280;72691;51.374;-0.176;2024-03-02T12:34:30;98831.15;;;7.40;63.74
82668;BME280;72691;51.374;-0.176;2024-03-02T12:36:55;98837.92;;;6.57;66.59
82668;BME280;72691;51.374;-0.176;2024-03-02T12:39:21;98839.33;;;5.81;68.97
82668;BME280;72691;51.374;-0.176;2024-03-02T12:41:46;98852.41;;;5.58;68.35
82668;BME280;72691;51.374;-0.176;2024-03-02T12:44:12;98850.24;;;5.87;69.38
82668;BME280;72691;51.374;-0.176;2024-03-02T12:46:37;98856.31;;;5.94;68.70
82668;BME280;72691;51.374;-0.176;2024-03-02T12:49:08;98847.09;;;6.16;67.26
82668;BME280;72691;51.374;-0.176;2024-03-02T12:51:28;98849.70;;;6.21;67.90